Time;durP1;ratioP1;P1;durP2;ratioP2;P2;SDS_P1;SDS_P2;PMS_P1;PMS_P2;Temp;Humidity;BMP_temperature;BMP_pressure;BME280_temperature;BME280_humidity;BME280_pressure;Samples;Min_cycle;Max_cycle;Signal;HPM_P1;HPM_P2
2021/01/11 00:01:03;;;;;;;37.72;18.83;;;;;;;-0.62;88.04;101444.09;5003816;28;20066;-63
2021/01/11 00:03:29;;;;;;;41.00;19.23;;;;;;;-0.71;88.03;101456.16;5005056;28;20060;-62
2021/01/11 00:05:56;;;;;;;36.78;19.33;;;;;;;-0.72;88.31;101451.81;5006378;28;20489;-61
2021/01/11 00:08:23;;;;;;;36.95;19.05;;;;;;;-0.66;87.03;101444.09;5004067;28;20060;-62
2021/01/11 00:10:50;;;;;;;37.10;18.70;;;;;;;-0.70;87.18;101453.56;4996066;28;20707;-63
2021/01/11 00:13:17;;;;;;;36.92;17.75;;;;;;;-0.81;88.36;101450.97;4993197;28;20061;-61
2021/01/11 00:15:44;;;;;;;37.45;17.88;;;;;;;-0.71;87.63;101438.06;5025584;23;20540;-60
2021/01/11 00:18:10;;;;;;;40.38;17.88;;;;;;;-0.62;86.91;101431.16;5037045;28;20522;-63
2021/01/11 00:20:37;;;;;;;32.70;16.80;;;;;;;-0.59;86.22;101428.56;5041495;28;20542;-62
2021/01/11 00:23:04;;;;;;;35.10;17.50;;;;;;;-0.65;86.27;101433.75;5034873;28;20106;-60
2021/01/11 00:25:31;;;;;;;34.60;16.45;;;;;;;-0.58;86.50;101432.88;5031737;28;20061;-62
2021/01/11 00:27:57;;;;;;;31.25;16.15;;;;;;;-0.73;86.38;101439.75;5018122;28;20058;-60
2021/01/11 00:30:24;;;;;;;31.48;17.27;;;;;;;-0.56;87.04;101431.16;5021266;28;20045;-63
2021/01/11 00:32:51;;;;;;;30.75;16.40;;;;;;;-0.52;85.90;101429.44;5020523;28;20120;-63
2021/01/11 00:35:18;;;;;;;34.33;17.23;;;;;;;-0.69;86.13;101434.59;5021470;28;20057;-60
2021/01/11 00:37:45;;;;;;;32.30;17.27;;;;;;;-0.82;86.89;101438.03;5022406;28;20046;-64
2021/01/11 00:40:11;;;;;;;33.13;17.70;;;;;;;-0.82;87.74;101444.06;5018900;28;20050;-63
2021/01/11 00:42:39;;;;;;;37.35;16.95;;;;;;;-0.69;86.66;101450.09;5021528;28;20430;-62
2021/01/11 00:45:08;;;;;;;31.63;16.52;;;;;;;-0.72;86.46;101441.47;5016856;28;20049;-65
2021/01/11 00:47:39;;;;;;;35.70;18.45;;;;;;;-0.65;86.13;101443.22;5020520;28;20257;-62
2021/01/11 00:50:07;;;;;;;37.08;18.05;;;;;;;-0.75;86.53;101442.34;4998421;28;20085;-63
2021/01/11 00:52:35;;;;;;;31.08;17.02;;;;;;;-0.63;86.16;101438.91;5019245;28;20414;-63
2021/01/11 00:55:10;;;;;;;35.92;18.08;;;;;;;-0.58;85.67;101437.19;5022751;28;20037;-62
2021/01/11 00:57:36;;;;;;;33.72;16.70;;;;;;;-0.57;86.28;101452.69;5019677;28;20403;-64
2021/01/11 01:00:06;;;;;;;31.95;15.63;;;;;;;-0.52;86.02;101440.63;5026810;28;20144;-62
2021/01/11 01:02:32;;;;;;;30.38;15.27;;;;;;;-0.56;85.93;101446.66;5024815;28;20057;-64
2021/01/11 01:04:59;;;;;;;31.17;15.40;;;;;;;-0.32;84.67;101443.19;5021086;28;20057;-62
2021/01/11 01:07:26;;;;;;;33.20;15.55;;;;;;;-0.31;84.42;101444.09;5020603;28;20046;-63
2021/01/11 01:09:53;;;;;;;28.63;15.05;;;;;;;-0.36;83.95;101438.03;5023245;28;20055;-63
2021/01/11 01:12:20;;;;;;;29.63;14.85;;;;;;;-0.36;84.45;101432.84;5024171;28;20050;-61
2021/01/11 01:14:47;;;;;;;30.55;15.50;;;;;;;-0.56;85.22;101440.63;5021408;28;20053;-63
2021/01/11 01:17:13;;;;;;;27.75;16.20;;;;;;;-0.51;85.42;101436.31;5030978;28;20053;-66
2021/01/11 01:19:40;;;;;;;33.47;16.63;;;;;;;-0.47;85.70;101445.81;5028015;28;20063;-62
2021/01/11 01:22:07;;;;;;;25.77;14.25;;;;;;;-0.26;85.20;101435.44;5017944;28;20057;-63
2021/01/11 01:24:34;;;;;;;27.35;15.20;;;;;;;-0.25;84.06;101433.72;5028024;28;20049;-63
2021/01/11 01:27:01;;;;;;;27.58;14.98;;;;;;;-0.23;83.42;101431.97;5024545;28;20045;-62
2021/01/11 01:29:28;;;;;;;30.10;15.93;;;;;;;-0.27;83.93;101433.72;5030223;28;20128;-62
2021/01/11 01:31:54;;;;;;;31.67;13.98;;;;;;;-0.29;84.42;101421.63;5029787;28;20053;-61
2021/01/11 01:34:21;;;;;;;27.17;13.77;;;;;;;-0.18;83.31;101417.31;5027090;28;20897;-62
2021/01/11 01:36:48;;;;;;;31.85;15.60;;;;;;;-0.07;83.16;101425.06;5017606;28;20053;-62
2021/01/11 01:39:14;;;;;;;31.27;14.52;;;;;;;0.12;82.36;101424.13;5026378;28;20064;-62
2021/01/11 01:41:41;;;;;;;28.55;14.55;;;;;;;-0.26;82.73;101421.66;5022665;28;20054;-63
2021/01/11 01:44:08;;;;;;;26.73;14.60;;;;;;;-0.26;83.62;101419.06;5021934;28;20053;-61
2021/01/11 01:46:35;;;;;;;25.20;13.88;;;;;;;-0.30;83.84;101419.94;5022386;28;20072;-63
2021/01/11 01:49:02;;;;;;;28.70;15.32;;;;;;;-0.35;83.62;101404.41;5023329;28;20132;-62
2021/01/11 01:51:29;;;;;;;29.15;14.93;;;;;;;0.11;82.19;101408.59;5020455;28;20050;-62
2021/01/11 01:53:56;;;;;;;25.77;13.25;;;;;;;0.13;81.94;101404.28;5024092;28;20053;-62
2021/01/11 01:56:24;;;;;;;23.77;13.48;;;;;;;-0.02;82.38;101419.00;5018280;28;20137;-61
2021/01/11 01:58:51;;;;;;;25.70;13.25;;;;;;;0.06;82.27;101411.22;5023679;28;20038;-62
2021/01/11 02:01:18;;;;;;;22.90;12.68;;;;;;;-0.02;81.63;101408.63;5029099;28;20065;-61
2021/01/11 02:03:45;;;;;;;23.60;13.25;;;;;;;0.04;82.08;101412.06;5027373;28;20088;-62
2021/01/11 02:06:12;;;;;;;26.58;14.38;;;;;;;-0.16;82.37;101407.81;5025017;28;20063;-62
2021/01/11 02:08:51;;;;;;;27.23;13.38;;;;;;;-0.07;81.71;101407.78;5031322;28;20056;-59
2021/01/11 02:11:29;;;;;;;21.98;12.07;;;;;;;-0.10;81.82;101402.63;4996992;28;20468;-62
2021/01/11 02:14:28;;;;;;;23.58;12.77;;;;;;;0.04;82.54;101399.13;5015821;28;20053;-63
2021/01/11 02:17:02;;;;;;;23.80;12.70;;;;;;;-0.09;81.80;101399.19;5032364;28;20407;-63
2021/01/11 02:19:45;;;;;;;25.55;13.18;;;;;;;0.09;81.94;101403.44;5017170;28;20049;-64
2021/01/11 02:22:37;;;;;;;21.80;12.45;;;;;;;-0.06;81.56;101395.72;5024611;28;20545;-63
2021/01/11 02:25:19;;;;;;;24.00;13.10;;;;;;;0.16;80.32;101387.00;5023320;28;20050;-62
2021/01/11 02:27:59;;;;;;;25.23;12.38;;;;;;;0.18;81.05;101394.75;5019613;28;20073;-62
2021/01/11 02:30:34;;;;;;;21.70;12.10;;;;;;;0.25;81.01;101391.28;5028432;28;20053;-63
2021/01/11 02:33:05;;;;;;;23.25;9.90;;;;;;;0.24;80.45;101381.81;5018622;28;20108;-62
2021/01/11 02:35:47;;;;;;;22.35;11.50;;;;;;;0.24;81.50;101384.38;5024792;28;20049;-63
2021/01/11 02:38:15;;;;;;;25.90;12.70;;;;;;;0.19;82.04;101374.06;5025546;28;20057;-64
2021/01/11 02:40:42;;;;;;;21.77;12.25;;;;;;;0.18;81.97;101381.81;5021496;28;20429;-62
2021/01/11 02:43:08;;;;;;;25.30;10.85;;;;;;;0.12;82.37;101379.25;5026439;28;20053;-62
2021/01/11 02:45:35;;;;;;;23.75;12.73;;;;;;;0.09;82.80;101371.50;5034615;28;20442;-63
2021/01/11 02:48:21;;;;;;;20.73;11.48;;;;;;;0.07;82.32;101386.19;5018793;28;20515;-64
2021/01/11 02:50:57;;;;;;;27.08;12.30;;;;;;;0.06;81.88;101377.56;5023253;28;20053;-64
2021/01/11 02:54:00;;;;;;;23.42;12.20;;;;;;;0.08;82.37;101382.72;5029941;28;20056;-61
2021/01/11 02:56:32;;;;;;;21.30;11.75;;;;;;;0.14;81.75;101373.22;5021067;28;20053;-63
2021/01/11 02:59:18;;;;;;;23.70;11.82;;;;;;;0.26;81.32;101367.09;5026971;28;20332;-63
2021/01/11 03:01:57;;;;;;;21.77;11.90;;;;;;;0.09;83.03;101371.50;5024603;28;20077;-62
2021/01/11 03:04:25;;;;;;;23.10;12.48;;;;;;;0.03;82.20;101371.53;5028054;28;20060;-59
2021/01/11 03:07:03;;;;;;;19.27;10.48;;;;;;;0.00;82.07;101369.81;5019448;28;20518;-62
2021/01/11 03:09:31;;;;;;;19.88;11.23;;;;;;;0.20;82.15;101374.91;5025374;28;20430;-61
2021/01/11 03:11:59;;;;;;;29.60;11.13;;;;;;;0.05;81.63;101375.84;5023850;28;20278;-63
2021/01/11 03:14:26;;;;;;;22.85;12.30;;;;;;;0.01;82.21;101368.94;5020930;28;20057;-63
2021/01/11 03:16:53;;;;;;;19.13;11.45;;;;;;;0.03;81.77;101369.78;5004437;28;20060;-62
2021/01/11 03:19:20;;;;;;;20.80;11.18;;;;;;;-0.11;82.47;101369.84;5022780;28;20057;-63
2021/01/11 03:21:47;;;;;;;21.90;11.68;;;;;;;-0.08;82.59;101367.25;5018731;28;20412;-63
2021/01/11 03:24:16;;;;;;;20.40;11.32;;;;;;;-0.16;82.52;101356.06;5017290;28;20057;-61
2021/01/11 03:26:43;;;;;;;20.83;11.15;;;;;;;-0.10;83.09;101352.59;5025235;28;20110;-62
2021/01/11 03:29:11;;;;;;;19.45;10.30;;;;;;;-0.03;82.76;101352.56;5016919;28;20060;-63
2021/01/11 03:31:38;;;;;;;23.83;11.15;;;;;;;-0.32;83.53;101349.19;5018664;28;20051;-63
2021/01/11 03:34:09;;;;;;;24.95;12.05;;;;;;;-0.05;83.04;101356.88;5019569;28;20459;-62
2021/01/11 03:36:36;;;;;;;24.25;12.27;;;;;;;0.05;83.34;101352.53;5026881;28;20057;-61
2021/01/11 03:39:07;;;;;;;23.42;11.43;;;;;;;0.20;83.45;101356.78;5023927;28;20053;-63
2021/01/11 03:41:34;;;;;;;23.38;12.38;;;;;;;-0.07;84.42;101352.59;5025371;28;20076;-64
2021/01/11 03:44:01;;;;;;;22.10;12.07;;;;;;;0.05;84.26;101349.97;5016602;28;20406;-63
2021/01/11 03:46:29;;;;;;;23.58;12.85;;;;;;;-0.19;86.48;101348.28;5019618;28;20064;-62
2021/01/11 03:48:56;;;;;;;21.42;11.65;;;;;;;-0.09;87.21;101343.94;5022058;28;20045;-62
2021/01/11 03:51:23;;;;;;;23.80;13.00;;;;;;;-0.14;89.31;101340.50;5021095;28;20692;-63
2021/01/11 03:53:50;;;;;;;22.15;12.25;;;;;;;-0.24;90.35;101341.41;5022350;28;20050;-63
2021/01/11 03:56:17;;;;;;;25.55;12.85;;;;;;;-0.26;90.50;101338.84;5019562;28;20088;-63
2021/01/11 03:58:43;;;;;;;30.85;14.98;;;;;;;-0.55;91.48;101333.72;5018248;28;20057;-63
2021/01/11 04:01:10;;;;;;;25.35;13.98;;;;;;;-0.69;92.16;101338.06;5020233;28;20053;-59
2021/01/11 04:03:37;;;;;;;24.58;12.52;;;;;;;-0.41;90.75;101338.88;5024649;28;20486;-62
2021/01/11 04:06:04;;;;;;;31.23;13.32;;;;;;;-0.50;91.85;101339.75;5026191;28;20068;-60
2021/01/11 04:08:31;;;;;;;25.60;14.63;;;;;;;-0.41;91.27;101344.03;4998707;28;20455;-64
2021/01/11 04:10:58;;;;;;;26.45;13.40;;;;;;;-0.19;90.85;101343.13;5022825;28;20142;-62
2021/01/11 04:13:25;;;;;;;22.88;13.57;;;;;;;-0.36;90.82;101342.31;5029491;28;20433;-62
2021/01/11 04:15:51;;;;;;;26.88;12.45;;;;;;;-0.21;90.46;101341.41;4993568;28;20217;-62
2021/01/11 04:18:18;;;;;;;25.95;12.82;;;;;;;-0.13;90.35;101334.50;5028550;28;20073;-64
2021/01/11 04:20:45;;;;;;;22.48;13.40;;;;;;;-0.21;91.02;101336.25;5019764;28;20499;-63
2021/01/11 04:23:12;;;;;;;24.23;13.88;;;;;;;-0.26;90.56;101338.84;5020112;28;20293;-63
2021/01/11 04:25:39;;;;;;;23.20;12.43;;;;;;;-0.08;90.75;101328.44;5017054;28;20072;-62
2021/01/11 04:28:06;;;;;;;28.52;15.68;;;;;;;-0.10;91.23;101324.13;5017876;28;20533;-62
2021/01/11 04:30:33;;;;;;;27.55;14.40;;;;;;;-0.16;91.30;101335.34;5020818;28;20160;-64
2021/01/11 04:33:00;;;;;;;25.50;12.70;;;;;;;-0.08;90.35;101325.00;5022145;28;20112;-62
2021/01/11 04:35:28;;;;;;;30.67;15.05;;;;;;;-0.42;91.82;101321.63;5022392;28;20408;-63
2021/01/11 04:37:56;;;;;;;27.73;14.32;;;;;;;-0.37;91.66;101318.16;5017374;28;20062;-62
2021/01/11 04:40:24;;;;;;;24.75;13.48;;;;;;;-0.44;92.38;101324.25;5025845;28;20057;-61
2021/01/11 04:42:55;;;;;;;30.50;14.52;;;;;;;-0.24;91.63;101320.72;5018452;28;20058;-63
2021/01/11 04:45:23;;;;;;;24.83;14.25;;;;;;;-0.54;92.21;101315.66;5023402;28;20058;-61
2021/01/11 04:47:57;;;;;;;30.92;13.93;;;;;;;-0.34;91.76;101314.72;5024826;28;20144;-62
2021/01/11 04:50:26;;;;;;;24.92;15.02;;;;;;;-0.51;92.01;101315.63;5021704;28;20128;-62
2021/01/11 04:52:53;;;;;;;25.13;13.73;;;;;;;-0.25;92.17;101306.94;5026001;28;20053;-62
2021/01/11 04:55:20;;;;;;;22.73;14.02;;;;;;;-0.26;91.42;101308.66;5027970;28;20112;-62
2021/01/11 04:57:54;;;;;;;29.45;14.32;;;;;;;-0.24;91.55;101307.78;5020892;28;20730;-62
2021/01/11 05:00:27;;;;;;;28.42;14.20;;;;;;;-0.11;91.58;101306.88;5035632;28;20542;-64
2021/01/11 05:03:09;;;;;;;23.15;12.80;;;;;;;0.02;90.71;101308.53;5022523;28;20104;-63
2021/01/11 05:05:38;;;;;;;29.70;15.48;;;;;;;-0.04;90.82;101311.16;5020544;28;20075;-63
2021/01/11 05:08:06;;;;;;;24.45;14.85;;;;;;;-0.16;91.57;101312.06;5019764;28;20438;-63
2021/01/11 05:10:38;;;;;;;25.23;13.38;;;;;;;0.03;90.71;101302.50;5028238;28;20073;-61
2021/01/11 05:13:11;;;;;;;25.15;12.90;;;;;;;0.09;90.50;101310.25;5025127;28;20093;-62
2021/01/11 05:15:39;;;;;;;25.83;13.93;;;;;;;-0.27;91.38;101312.13;5026953;28;20053;-64
2021/01/11 05:18:13;;;;;;;24.55;12.57;;;;;;;0.08;90.65;101295.56;5025840;28;20391;-61
2021/01/11 05:20:40;;;;;;;25.00;15.00;;;;;;;-0.21;91.31;101297.44;5018830;28;20049;-64
2021/01/11 05:23:16;;;;;;;27.65;14.65;;;;;;;-0.06;91.44;101298.22;5023511;28;20045;-65
2021/01/11 05:25:45;;;;;;;22.98;12.82;;;;;;;0.08;90.02;101294.69;5022245;28;20540;-62
2021/01/11 05:28:18;;;;;;;23.67;12.82;;;;;;;0.11;90.25;101292.97;5021282;28;20053;-62
2021/01/11 05:30:49;;;;;;;30.10;13.75;;;;;;;-0.13;91.68;101295.69;5026532;28;20068;-62
2021/01/11 05:33:17;;;;;;;29.13;16.50;;;;;;;-0.23;91.79;101289.66;5023867;28;20060;-64
2021/01/11 05:35:45;;;;;;;23.67;14.02;;;;;;;-0.19;91.77;101290.50;5020154;28;20601;-64
2021/01/11 05:38:17;;;;;;;26.52;14.73;;;;;;;-0.18;91.74;101290.53;5017202;28;20050;-61
2021/01/11 05:40:45;;;;;;;24.92;13.27;;;;;;;-0.02;90.45;101288.72;5029749;28;20529;-61
2021/01/11 05:43:20;;;;;;;23.30;13.05;;;;;;;-0.23;91.77;101296.56;5021345;28;20151;-63
2021/01/11 05:45:48;;;;;;;21.80;13.48;;;;;;;-0.12;91.79;101290.50;5026518;28;20433;-62
2021/01/11 05:48:15;;;;;;;26.98;13.80;;;;;;;-0.08;91.07;101291.34;5025083;28;20049;-62
2021/01/11 05:50:43;;;;;;;25.92;14.27;;;;;;;-0.03;91.47;101297.34;5025103;28;20061;-62
2021/01/11 05:53:19;;;;;;;27.02;16.00;;;;;;;0.10;90.43;101283.47;5024951;28;20705;-63
2021/01/11 05:55:47;;;;;;;24.23;13.60;;;;;;;0.03;90.96;101289.53;5023480;28;20513;-61
2021/01/11 05:58:14;;;;;;;24.92;14.27;;;;;;;0.04;90.66;101298.16;5019873;28;20303;-63
2021/01/11 06:00:42;;;;;;;24.77;15.95;;;;;;;-0.06;90.76;101294.78;5019303;28;20045;-64
2021/01/11 06:03:10;;;;;;;26.45;14.70;;;;;;;-0.21;92.03;101285.34;5023245;28;20057;-63
2021/01/11 06:05:38;;;;;;;22.17;14.13;;;;;;;-0.11;91.70;101293.94;5026976;28;20064;-63
2021/01/11 06:08:09;;;;;;;25.70;14.15;;;;;;;-0.18;91.61;101287.06;5007609;28;20092;-63
2021/01/11 06:10:37;;;;;;;26.02;14.57;;;;;;;-0.28;91.53;101292.25;5021171;28;20095;-64
2021/01/11 06:13:11;;;;;;;25.15;14.30;;;;;;;-0.32;91.88;101289.69;5020157;28;20421;-63
2021/01/11 06:15:38;;;;;;;24.80;15.23;;;;;;;-0.20;91.17;101281.03;5032875;22;20117;-63
2021/01/11 06:18:12;;;;;;;27.13;14.40;;;;;;;-0.11;90.79;101281.84;4990077;28;20473;-64
2021/01/11 06:20:43;;;;;;;22.45;14.07;;;;;;;-0.24;91.47;101287.94;4987496;28;20078;-64
2021/01/11 06:23:11;;;;;;;25.92;14.82;;;;;;;-0.27;91.22;101287.94;4984372;28;20054;-64
2021/01/11 06:25:39;;;;;;;24.23;15.10;;;;;;;-0.09;90.98;101280.13;4988104;28;20082;-66
2021/01/11 06:28:08;;;;;;;23.48;14.27;;;;;;;-0.20;90.76;101284.47;4989959;28;20051;-63
2021/01/11 06:30:37;;;;;;;26.60;13.38;;;;;;;-0.26;91.12;101287.09;4987903;28;20062;-64
2021/01/11 06:33:10;;;;;;;25.65;13.75;;;;;;;-0.19;90.50;101281.00;4991738;28;20058;-64
2021/01/11 06:35:47;;;;;;;25.98;13.68;;;;;;;-0.17;90.55;101276.72;4991154;28;20137;-63
2021/01/11 06:38:30;;;;;;;24.42;13.02;;;;;;;-0.06;90.10;101287.84;4982837;28;20173;-64
2021/01/11 06:41:02;;;;;;;23.10;14.30;;;;;;;-0.18;90.46;101284.47;4989081;28;20034;-62
2021/01/11 06:43:40;;;;;;;24.98;14.32;;;;;;;0.01;90.29;101282.69;4994954;28;20077;-64
2021/01/11 06:46:10;;;;;;;25.55;14.45;;;;;;;-0.08;90.39;101281.00;4991992;28;20058;-63
2021/01/11 06:48:39;;;;;;;25.60;14.20;;;;;;;-0.19;90.11;101281.00;4988385;28;20058;-63
2021/01/11 06:51:11;;;;;;;24.00;13.50;;;;;;;0.10;89.86;101280.03;4999501;28;20060;-65
2021/01/11 06:53:38;;;;;;;28.50;14.55;;;;;;;0.04;89.38;101283.50;4982862;28;20092;-64
2021/01/11 06:56:10;;;;;;;25.90;13.70;;;;;;;-0.31;90.64;101273.31;4986713;28;20123;-62
2021/01/11 06:58:40;;;;;;;23.48;14.50;;;;;;;-0.33;91.19;101277.63;4992080;28;20407;-63
2021/01/11 07:01:13;;;;;;;26.05;14.52;;;;;;;-0.07;89.54;101280.13;4985490;28;20137;-64
2021/01/11 07:03:48;;;;;;;24.83;14.35;;;;;;;-0.03;89.12;101274.06;4987060;28;20062;-65
2021/01/11 07:06:40;;;;;;;24.92;14.60;;;;;;;-0.07;89.09;101275.78;4990433;28;20054;-64
2021/01/11 07:09:18;;;;;;;27.20;14.10;;;;;;;-0.12;89.00;101274.97;4978989;28;20058;-65
2021/01/11 07:11:50;;;;;;;24.80;14.20;;;;;;;-0.22;89.92;101275.03;4985827;28;20062;-64
2021/01/11 07:14:21;;;;;;;27.02;13.60;;;;;;;-0.30;90.39;101268.13;4986944;28;20553;-64
2021/01/11 07:16:50;;;;;;;22.98;14.02;;;;;;;-0.17;89.95;101268.94;4983704;28;20674;-65
2021/01/11 07:19:43;;;;;;;23.15;12.85;;;;;;;0.03;88.71;101274.00;4978976;28;20043;-65
2021/01/11 07:22:10;;;;;;;20.15;12.40;;;;;;;0.13;88.01;101273.09;4982568;28;20112;-66
2021/01/11 07:24:40;;;;;;;28.50;13.27;;;;;;;0.10;87.71;101275.72;4977910;28;20476;-64
2021/01/11 07:27:07;;;;;;;23.05;12.55;;;;;;;0.03;88.48;101270.56;4980540;28;20062;-67
2021/01/11 07:29:34;;;;;;;21.42;12.20;;;;;;;-0.02;88.67;101268.88;4975461;28;20058;-64
2021/01/11 07:32:01;;;;;;;24.73;13.05;;;;;;;0.08;88.68;101263.63;4975753;28;20703;-64
2021/01/11 07:34:28;;;;;;;22.25;12.00;;;;;;;0.29;87.53;101255.75;4972660;28;20052;-64
2021/01/11 07:36:56;;;;;;;24.90;14.00;;;;;;;0.12;87.29;101255.00;4996892;28;20152;-64
2021/01/11 07:39:27;;;;;;;25.60;13.55;;;;;;;-0.05;88.00;101255.94;4977086;28;20047;-65
2021/01/11 07:41:57;;;;;;;20.52;11.65;;;;;;;0.02;88.46;101255.91;4978153;28;20050;-65
2021/01/11 07:44:25;;;;;;;21.55;12.85;;;;;;;-0.06;88.68;101261.13;4973609;28;20141;-65
2021/01/11 07:47:08;;;;;;;25.45;13.50;;;;;;;-0.09;89.31;101259.44;4979113;28;20384;-65
2021/01/11 07:49:40;;;;;;;22.90;12.07;;;;;;;0.22;87.63;101259.22;4977222;28;20594;-65
2021/01/11 07:52:09;;;;;;;26.45;13.18;;;;;;;0.20;87.52;101253.22;4976312;28;20068;-65
2021/01/11 07:54:37;;;;;;;21.52;12.13;;;;;;;0.31;87.42;101245.38;4987283;28;20054;-63
2021/01/11 07:57:14;;;;;;;34.55;13.82;;;;;;;0.29;86.85;101252.28;4971895;28;21133;-66
2021/01/11 07:59:42;;;;;;;21.95;13.13;;;;;;;0.11;88.39;101254.13;4976594;28;20068;-63
2021/01/11 08:02:13;;;;;;;24.50;12.13;;;;;;;0.09;87.44;101248.13;4973189;28;20062;-64
2021/01/11 08:04:42;;;;;;;24.85;12.05;;;;;;;0.20;87.21;101254.06;4970839;28;20077;-64
2021/01/11 08:07:12;;;;;;;23.58;12.35;;;;;;;0.32;87.21;101260.91;4980310;28;20145;-62
2021/01/11 08:09:40;;;;;;;21.52;11.82;;;;;;;0.34;86.93;101251.38;4975707;28;20054;-64
2021/01/11 08:12:17;;;;;;;21.95;13.27;;;;;;;0.34;86.56;101250.53;4974624;28;20064;-65
2021/01/11 08:14:44;;;;;;;24.73;13.70;;;;;;;0.23;87.40;101259.25;4974348;28;20164;-64
2021/01/11 08:17:17;;;;;;;20.58;11.60;;;;;;;0.31;87.19;101261.75;5000563;28;20054;-65
2021/01/11 08:19:55;;;;;;;23.08;12.18;;;;;;;0.34;86.82;101258.31;4966796;28;20158;-64
2021/01/11 08:22:22;;;;;;;20.67;12.43;;;;;;;0.10;87.45;101260.19;4978606;28;20077;-66
2021/01/11 08:24:53;;;;;;;22.15;12.40;;;;;;;0.27;86.68;101262.69;4971507;28;21372;-64
2021/01/11 08:27:22;;;;;;;21.58;11.63;;;;;;;0.23;87.23;101261.84;4976005;28;20534;-63
2021/01/11 08:29:49;;;;;;;22.85;12.38;;;;;;;0.19;86.43;101265.31;4974053;28;20554;-65
2021/01/11 08:32:17;;;;;;;21.02;11.65;;;;;;;0.35;86.58;101257.44;4976508;28;20062;-65
2021/01/11 08:34:44;;;;;;;17.55;11.35;;;;;;;0.56;85.65;101253.84;4969566;28;20064;-63
2021/01/11 08:37:29;;;;;;;20.08;11.40;;;;;;;0.80;87.61;101255.34;4977231;28;20062;-63
2021/01/11 08:39:57;;;;;;;21.73;12.68;;;;;;;1.27;86.54;101260.09;4975499;28;20066;-65
2021/01/11 08:42:25;;;;;;;21.60;10.98;;;;;;;0.94;82.51;101249.16;4977881;28;20120;-64
2021/01/11 08:44:52;;;;;;;20.85;11.07;;;;;;;0.64;83.23;101247.72;4967401;28;20109;-65
2021/01/11 08:47:30;;;;;;;19.13;11.00;;;;;;;0.73;83.65;101249.38;5001431;28;20062;-65
2021/01/11 08:49:59;;;;;;;27.55;13.38;;;;;;;0.80;83.72;101252.75;4973357;28;20059;-61
2021/01/11 08:52:28;;;;;;;18.15;10.32;;;;;;;0.67;83.58;101244.22;4975550;28;20046;-64
2021/01/11 08:54:55;;;;;;;19.75;11.10;;;;;;;0.70;83.65;101251.97;4971456;28;20109;-64
2021/01/11 08:57:27;;;;;;;25.33;11.48;;;;;;;0.55;84.03;101252.13;4973672;28;20058;-66
2021/01/11 08:59:54;;;;;;;17.23;10.25;;;;;;;0.61;83.91;101252.91;4976764;28;20057;-66
2021/01/11 09:02:25;;;;;;;17.98;10.95;;;;;;;0.60;83.92;101248.63;4976852;28;20585;-66
2021/01/11 09:04:53;;;;;;;16.85;9.77;;;;;;;0.65;84.65;101256.34;4976141;28;20046;-62
2021/01/11 09:07:29;;;;;;;16.45;10.32;;;;;;;0.64;83.66;101247.72;4976940;28;20075;-64
2021/01/11 09:09:58;;;;;;;18.98;10.90;;;;;;;0.53;84.16;101262.47;4974709;28;20133;-65
2021/01/11 09:12:30;;;;;;;21.05;10.55;;;;;;;0.75;83.90;101258.84;4978325;28;20058;-65
2021/01/11 09:14:57;;;;;;;18.20;10.98;;;;;;;0.71;83.22;101257.16;4976847;28;20058;-65
2021/01/11 09:17:29;;;;;;;17.50;10.63;;;;;;;0.62;83.39;101264.13;4977412;28;20050;-66
2021/01/11 09:19:59;;;;;;;20.75;11.48;;;;;;;0.59;83.50;101269.38;4972853;28;20058;-64
2021/01/11 09:22:36;;;;;;;20.73;11.10;;;;;;;0.73;83.06;101265.78;4973150;28;20463;-66
2021/01/11 09:25:11;;;;;;;18.50;10.20;;;;;;;0.75;84.13;101255.41;4981624;28;20062;-64
2021/01/11 09:27:41;;;;;;;17.88;10.32;;;;;;;0.84;82.78;101260.50;4979488;28;20128;-65
2021/01/11 09:30:09;;;;;;;18.63;8.48;;;;;;;0.85;82.57;101256.16;4975497;28;20110;-65
2021/01/11 09:32:36;;;;;;;16.25;9.77;;;;;;;0.85;82.31;101258.75;4974540;28;20661;-66
2021/01/11 09:35:04;;;;;;;18.40;9.50;;;;;;;0.94;81.92;101254.34;4972953;28;20058;-64
2021/01/11 09:37:30;;;;;;;17.73;10.73;;;;;;;0.88;82.80;101243.19;4987879;28;20050;-67
2021/01/11 09:39:57;;;;;;;17.90;11.35;;;;;;;1.11;81.82;101256.78;4992419;28;20046;-66
2021/01/11 09:42:24;;;;;;;19.02;11.02;;;;;;;0.97;82.16;101262.09;4996626;28;20058;-65
2021/01/11 09:44:51;;;;;;;17.30;9.80;;;;;;;1.03;81.56;101258.59;4989190;28;20137;-65
2021/01/11 09:47:18;;;;;;;18.23;9.85;;;;;;;1.06;81.32;101255.97;4991151;28;20051;-66
2021/01/11 09:49:45;;;;;;;17.50;10.88;;;;;;;1.09;81.33;101248.19;4983905;28;20141;-66
2021/01/11 09:52:11;;;;;;;18.92;10.75;;;;;;;1.07;81.04;101246.47;4988525;28;20061;-66
2021/01/11 09:54:38;;;;;;;15.85;10.40;;;;;;;1.20;80.51;101255.84;4982974;28;20072;-64
2021/01/11 09:57:05;;;;;;;16.88;9.60;;;;;;;0.87;81.12;101257.03;4989500;28;20112;-65
2021/01/11 09:59:32;;;;;;;17.02;9.98;;;;;;;0.91;81.41;101249.22;4992629;28;20053;-70
2021/01/11 10:01:58;;;;;;;18.95;9.65;;;;;;;0.86;81.27;101252.72;4985594;28;20050;-63
2021/01/11 10:04:25;;;;;;;15.27;9.02;;;;;;;0.98;80.64;101242.22;4986741;28;20124;-63
2021/01/11 10:06:56;;;;;;;17.20;9.45;;;;;;;0.94;81.01;101243.97;4983269;28;20054;-66
2021/01/11 10:09:27;;;;;;;17.17;9.32;;;;;;;1.07;80.71;101244.72;4993498;28;20053;-65
2021/01/11 10:12:01;;;;;;;17.15;10.20;;;;;;;0.97;80.83;101246.56;4990913;28;20054;-65
2021/01/11 10:14:29;;;;;;;17.77;9.38;;;;;;;1.00;80.90;101243.94;4986022;28;20669;-64
2021/01/11 10:16:56;;;;;;;15.98;9.02;;;;;;;0.95;80.67;101245.72;4966622;28;20096;-67
2021/01/11 10:19:25;;;;;;;19.65;10.32;;;;;;;1.06;80.19;101237.81;4972836;28;20050;-65
2021/01/11 10:21:53;;;;;;;18.52;9.00;;;;;;;0.95;80.37;101229.31;4971828;28;20051;-64
2021/01/11 10:24:21;;;;;;;14.25;8.80;;;;;;;1.15;80.27;101229.94;4973752;28;20062;-67
2021/01/11 10:26:49;;;;;;;13.15;8.77;;;;;;;1.30;79.29;101234.09;4976802;28;20070;-63
2021/01/11 10:29:16;;;;;;;58.58;29.50;;;;;;;1.30;79.31;101220.28;4972276;28;20097;-66
2021/01/11 10:31:46;;;;;;;17.70;10.30;;;;;;;1.41;78.41;101231.41;4978417;28;20053;-65
2021/01/11 10:34:16;;;;;;;15.10;8.57;;;;;;;1.00;79.63;101214.56;4981733;28;20827;-64
2021/01/11 10:36:46;;;;;;;11.60;7.35;;;;;;;1.06;79.35;101227.47;4959019;28;20133;-64
2021/01/11 10:39:13;;;;;;;15.10;9.02;;;;;;;1.11;79.79;101217.88;4971157;28;20051;-66
2021/01/11 10:41:40;;;;;;;17.52;9.15;;;;;;;1.01;79.65;101218.88;4973535;28;20062;-65
2021/01/11 10:44:08;;;;;;;16.70;8.40;;;;;;;1.15;80.54;101211.81;4974305;28;20570;-65
2021/01/11 10:46:35;;;;;;;11.73;7.32;;;;;;;1.61;78.84;101203.47;4976035;28;20058;-66
2021/01/11 10:49:03;;;;;;;14.52;7.88;;;;;;;1.57;77.96;101206.97;4981276;28;20055;-64
2021/01/11 10:51:33;;;;;;;14.45;8.07;;;;;;;1.19;78.88;101207.44;4977014;28;20063;-64
2021/01/11 10:54:00;;;;;;;14.27;7.97;;;;;;;1.19;79.81;101203.13;4982919;28;20064;-64
2021/01/11 10:56:27;;;;;;;12.88;8.20;;;;;;;0.78;81.14;101207.88;4962956;28;20046;-64
2021/01/11 10:58:54;;;;;;;17.05;7.85;;;;;;;1.12;80.40;101198.00;4981487;28;20062;-64
2021/01/11 11:01:32;;;;;;;15.23;7.85;;;;;;;1.24;80.74;101188.34;4975711;28;20072;-66
2021/01/11 11:03:59;;;;;;;13.00;7.53;;;;;;;1.20;80.03;101183.22;4981542;28;20788;-62
2021/01/11 11:06:26;;;;;;;19.52;9.65;;;;;;;1.09;80.83;101179.91;4984863;28;20065;-63
2021/01/11 11:08:53;;;;;;;13.88;8.13;;;;;;;1.14;81.67;101184.16;4987768;28;20061;-61
2021/01/11 11:11:20;;;;;;;14.43;7.85;;;;;;;1.14;81.74;101181.56;4985051;28;20066;-66
2021/01/11 11:13:47;;;;;;;13.77;8.32;;;;;;;0.88;83.28;101171.47;4978030;28;20140;-65
2021/01/11 11:16:14;;;;;;;14.38;7.82;;;;;;;0.76;84.22;101171.59;4974076;28;20050;-64
2021/01/11 11:18:42;;;;;;;12.23;7.82;;;;;;;0.93;83.83;101166.25;4980543;28;20054;-65
2021/01/11 11:21:10;;;;;;;14.10;8.30;;;;;;;0.98;84.15;101157.53;4980933;28;20062;-64
2021/01/11 11:23:37;;;;;;;16.00;8.10;;;;;;;1.08;83.97;101157.41;4978353;28;20133;-64
2021/01/11 11:26:05;;;;;;;13.00;7.90;;;;;;;1.21;84.29;101157.25;4983266;28;20083;-65